Time;durP1;ratioP1;P1;durP2;ratioP2;P2;SDS_P1;SDS_P2;PMS_P1;PMS_P2;Temp;Humidity;BMP_temperature;BMP_pressure;BME280_temperature;BME280_humidity;BME280_pressure;Samples;Min_cycle;Max_cycle;Signal;HPM_P1;HPM_P2
2024/02/19 00:00:26;;;;;;;6.75;2.83;;;;;;;5.88;100.00;97043.97;1030945;28;20041;-67
2024/02/19 00:00:57;;;;;;;5.53;3.13;;;;;;;5.88;100.00;97033.56;1031111;28;20552;-67
2024/02/19 00:01:29;;;;;;;4.20;3.10;;;;;;;5.89;100.00;97035.16;1035434;28;20041;-67
2024/02/19 00:01:59;;;;;;;5.80;3.25;;;;;;;5.89;100.00;97034.34;1034990;28;20199;-67
2024/02/19 00:02:30;;;;;;;3.60;2.63;;;;;;;5.89;100.00;97037.75;1035129;28;20163;-67
2024/02/19 00:03:03;;;;;;;5.43;3.28;;;;;;;5.89;100.00;97029.16;1035315;28;20045;-67
2024/02/19 00:03:34;;;;;;;2.88;2.33;;;;;;;5.89;100.00;97029.94;1032280;28;20110;-67
2024/02/19 00:04:04;;;;;;;5.68;3.10;;;;;;;5.89;100.00;97029.94;1039327;28;20132;-67
2024/02/19 00:04:35;;;;;;;4.47;2.40;;;;;;;5.88;100.00;97033.56;1039135;28;20496;-66
2024/02/19 00:05:06;;;;;;;4.20;2.47;;;;;;;5.88;100.00;97030.94;1039171;28;20401;-66
2024/02/19 00:05:36;;;;;;;2.85;2.25;;;;;;;5.89;100.00;97024.72;1039312;28;20025;-67
2024/02/19 00:06:06;;;;;;;3.38;2.65;;;;;;;5.90;100.00;97030.75;1035062;28;20026;-67
2024/02/19 00:06:37;;;;;;;3.22;2.53;;;;;;;5.89;100.00;97035.16;1035056;28;20030;-67
2024/02/19 00:07:07;;;;;;;3.30;2.45;;;;;;;5.91;100.00;97027.16;1037014;28;20469;-67
2024/02/19 00:07:38;;;;;;;4.75;2.42;;;;;;;5.92;100.00;97033.97;1043339;28;20025;-67
2024/02/19 00:08:08;;;;;;;6.65;2.35;;;;;;;5.91;100.00;97029.75;1043770;28;20041;-67
2024/02/19 00:08:39;;;;;;;3.00;2.10;;;;;;;5.91;100.00;97033.16;1042737;28;20025;-67
2024/02/19 00:09:09;;;;;;;4.97;2.53;;;;;;;5.90;100.00;97035.94;1039144;28;20068;-67
2024/02/19 00:09:40;;;;;;;3.97;2.00;;;;;;;5.91;100.00;97037.56;1035183;28;20469;-67
2024/02/19 00:10:10;;;;;;;4.18;2.50;;;;;;;5.89;100.00;97032.53;1030578;28;20026;-67
2024/02/19 00:10:40;;;;;;;2.13;1.80;;;;;;;5.91;100.00;97040.97;1034931;28;20033;-67
2024/02/19 00:11:13;;;;;;;2.33;1.80;;;;;;;5.91;100.00;97037.56;1031097;28;20030;-67
2024/02/19 00:11:43;;;;;;;2.85;2.00;;;;;;;5.91;100.00;97030.56;1035336;28;20063;-67
2024/02/19 00:12:14;;;;;;;4.38;2.40;;;;;;;5.91;100.00;97032.38;1035147;28;20044;-67
2024/02/19 00:12:44;;;;;;;2.80;1.88;;;;;;;5.92;100.00;97031.34;1035333;28;20088;-67
2024/02/19 00:13:15;;;;;;;3.47;2.38;;;;;;;5.91;100.00;97035.75;1039261;28;20484;-67
2024/02/19 00:13:45;;;;;;;4.28;2.40;;;;;;;5.88;100.00;97023.13;1039366;28;20044;-66
2024/02/19 00:14:16;;;;;;;3.33;1.95;;;;;;;5.93;100.00;97024.38;1039195;28;20097;-68
2024/02/19 00:14:46;;;;;;;4.35;2.45;;;;;;;5.91;100.00;97032.38;1035138;28;20096;-67
2024/02/19 00:15:16;;;;;;;3.17;2.15;;;;;;;5.93;100.00;97029.56;1035308;28;20060;-68
2024/02/19 00:15:47;;;;;;;5.13;1.92;;;;;;;5.91;100.00;97033.16;1038180;28;20021;-67
2024/02/19 00:16:19;;;;;;;3.00;1.95;;;;;;;5.92;100.00;97033.97;1039214;28;20378;-67
2024/02/19 00:16:49;;;;;;;3.65;1.95;;;;;;;5.91;100.00;97032.38;1035159;28;20111;-67
2024/02/19 00:17:20;;;;;;;3.72;2.33;;;;;;;5.89;100.00;97029.94;1033105;28;20624;-67
2024/02/19 00:17:50;;;;;;;2.90;2.05;;;;;;;5.91;100.00;97027.94;1035690;28;20037;-67
2024/02/19 00:18:21;;;;;;;3.47;2.33;;;;;;;5.91;100.00;97033.16;1031001;28;20038;-67
2024/02/19 00:18:51;;;;;;;4.03;2.13;;;;;;;5.91;100.00;97027.94;1030439;28;20041;-67
2024/02/19 00:19:22;;;;;;;6.65;2.08;;;;;;;5.93;100.00;97029.56;1027334;28;20340;-67
2024/02/19 00:19:52;;;;;;;2.10;1.80;;;;;;;5.93;100.00;97034.78;1030578;28;20038;-67
2024/02/19 00:20:23;;;;;;;1.77;1.60;;;;;;;5.93;100.00;97032.19;1035309;28;20022;-68
2024/02/19 00:20:54;;;;;;;2.15;1.90;;;;;;;5.88;100.00;97038.75;1034989;28;20025;-67
2024/02/19 00:21:24;;;;;;;1.65;1.48;;;;;;;5.93;100.00;97037.38;1035061;28;20850;-67
2024/02/19 00:21:55;;;;;;;3.85;2.75;;;;;;;5.94;100.00;97042.41;1035372;28;20026;-66
2024/02/19 00:22:25;;;;;;;3.67;1.83;;;;;;;5.92;100.00;97033.97;1036622;28;20030;-67
2024/02/19 00:22:55;;;;;;;2.20;1.38;;;;;;;5.94;100.00;97036.41;1039104;28;20041;-67
2024/02/19 00:23:26;;;;;;;3.95;1.60;;;;;;;5.94;100.00;97036.41;1039260;28;20021;-67
2024/02/19 00:23:57;;;;;;;2.95;1.52;;;;;;;5.95;100.00;97032.78;1039065;28;20025;-67
2024/02/19 00:24:27;;;;;;;2.00;1.65;;;;;;;5.94;100.00;97036.41;1039248;28;20108;-67
2024/02/19 00:24:58;;;;;;;3.00;1.65;;;;;;;5.93;100.00;97040.78;1039151;28;20021;-67
2024/02/19 00:25:30;;;;;;;2.97;2.03;;;;;;;5.93;100.00;97034.78;1034626;28;20096;-64
2024/02/19 00:26:00;;;;;;;3.75;2.00;;;;;;;5.93;100.00;97019.16;1034572;28;20072;-68
2024/02/19 00:26:31;;;;;;;3.53;1.83;;;;;;;5.93;100.00;97034.78;1035076;28;20481;-67
2024/02/19 00:27:02;;;;;;;2.63;1.45;;;;;;;5.95;100.00;97035.41;1031086;28;20648;-68
2024/02/19 00:27:32;;;;;;;3.50;1.45;;;;;;;5.94;100.00;97031.19;1031576;28;20066;-67
2024/02/19 00:28:03;;;;;;;6.20;2.00;;;;;;;5.94;100.00;97036.41;1034878;28;20033;-67
2024/02/19 00:28:33;;;;;;;2.88;2.30;;;;;;;5.94;100.00;97033.81;1035263;28;20038;-67
2024/02/19 00:29:04;;;;;;;5.47;2.22;;;;;;;5.94;100.00;97032.00;1034794;28;20034;-67
2024/02/19 00:29:35;;;;;;;2.03;1.60;;;;;;;5.95;100.00;97035.41;1039136;28;20080;-67
2024/02/19 00:30:06;;;;;;;1.65;1.50;;;;;;;5.94;100.00;97031.19;1031570;28;20030;-67
2024/02/19 00:30:36;;;;;;;3.53;1.30;;;;;;;5.93;100.00;97022.56;1031407;28;20025;-67
2024/02/19 00:31:10;;;;;;;3.35;2.10;;;;;;;5.96;100.00;97029.16;1034948;28;20140;-67
2024/02/19 00:31:41;;;;;;;3.78;1.55;;;;;;;5.95;100.00;97033.59;1029282;28;20068;-67
2024/02/19 00:32:11;;;;;;;2.28;1.80;;;;;;;5.96;100.00;97023.97;1030904;28;20438;-67
2024/02/19 00:32:41;;;;;;;2.38;1.20;;;;;;;5.97;100.00;97025.56;1030854;28;20030;-67
2024/02/19 00:33:12;;;;;;;3.88;1.50;;;;;;;5.97;100.00;97030.75;1031144;28;20113;-68
2024/02/19 00:33:43;;;;;;;3.13;1.58;;;;;;;5.97;100.00;97020.34;1031054;28;20037;-68
2024/02/19 00:34:13;;;;;;;7.03;1.92;;;;;;;5.97;100.00;97026.38;1027182;28;20029;-68
2024/02/19 00:34:43;;;;;;;3.58;1.92;;;;;;;5.98;100.00;97024.56;1035048;28;20551;-67
2024/02/19 00:35:14;;;;;;;4.03;1.95;;;;;;;5.98;100.00;97027.19;1035129;28;20022;-66
2024/02/19 00:35:45;;;;;;;1.20;1.10;;;;;;;5.96;100.00;97019.56;1035512;28;20022;-67
2024/02/19 00:36:16;;;;;;;0.77;0.77;;;;;;;5.97;100.00;97026.38;1039088;28;20028;-67
2024/02/19 00:36:46;;;;;;;2.92;1.05;;;;;;;5.97;100.00;97015.13;1039239;28;20087;-67
2024/02/19 00:37:17;;;;;;;2.50;1.35;;;;;;;5.98;100.00;97019.38;1034885;28;20513;-67
2024/02/19 00:37:51;;;;;;;3.58;0.90;;;;;;;5.98;100.00;97016.75;1030970;28;20033;-67
2024/02/19 00:38:21;;;;;;;1.83;1.25;;;;;;;5.94;100.00;97018.16;1030914;28;20053;-67
2024/02/19 00:38:54;;;;;;;3.38;1.42;;;;;;;5.96;100.00;97029.97;1031931;28;20030;-67
2024/02/19 00:39:24;;;;;;;1.35;1.00;;;;;;;5.95;100.00;97017.97;1035715;28;20249;-67
2024/02/19 00:39:55;;;;;;;3.15;0.82;;;;;;;5.96;100.00;97016.16;1038544;28;20795;-67
2024/02/19 00:40:25;;;;;;;0.60;0.60;;;;;;;5.96;100.00;97018.75;1038965;28;20034;-67
2024/02/19 00:40:56;;;;;;;0.90;0.85;;;;;;;5.90;100.00;97015.94;1039116;28;20034;-68
2024/02/19 00:41:27;;;;;;;1.40;0.88;;;;;;;5.94;100.00;97028.59;1030906;28;20022;-67
2024/02/19 00:41:57;;;;;;;1.20;1.05;;;;;;;5.95;100.00;97024.97;1034135;28;20021;-67
2024/02/19 00:42:28;;;;;;;1.90;1.13;;;;;;;5.96;100.00;97018.75;1034969;28;20089;-67
2024/02/19 00:42:58;;;;;;;2.70;1.80;;;;;;;5.96;100.00;97029.16;1037941;28;20025;-68
2024/02/19 00:43:30;;;;;;;4.13;1.85;;;;;;;5.96;100.00;97032.56;1038996;28;20033;-67
2024/02/19 00:44:00;;;;;;;2.85;1.80;;;;;;;5.96;100.00;97021.34;1039526;28;20128;-68
2024/02/19 00:44:31;;;;;;;4.03;1.90;;;;;;;5.95;100.00;97027.59;1038974;28;20033;-67
2024/02/19 00:45:01;;;;;;;4.65;1.30;;;;;;;5.97;100.00;97028.16;1038964;28;20021;-67
2024/02/19 00:45:32;;;;;;;1.75;0.90;;;;;;;5.98;100.00;97029.78;1039154;28;20040;-67
2024/02/19 00:46:03;;;;;;;3.38;2.08;;;;;;;5.99;100.00;97031.38;1039082;28;20018;-67
2024/02/19 00:46:33;;;;;;;4.10;1.65;;;;;;;5.98;100.00;97021.97;1039283;28;20702;-67
2024/02/19 00:47:04;;;;;;;3.70;1.88;;;;;;;5.99;100.00;97028.78;1035058;28;20026;-67
2024/02/19 00:47:36;;;;;;;2.35;1.70;;;;;;;5.99;100.00;97023.56;1039077;28;20072;-67
2024/02/19 00:48:06;;;;;;;2.05;1.38;;;;;;;6.00;100.00;97040.78;1039331;28;20022;-67
2024/02/19 00:48:37;;;;;;;1.75;1.40;;;;;;;5.99;100.00;97029.56;1038796;28;20033;-67
2024/02/19 00:49:07;;;;;;;2.95;2.00;;;;;;;6.00;100.00;97025.16;1039330;28;20029;-68
2024/02/19 00:49:38;;;;;;;1.27;1.17;;;;;;;5.99;100.00;97031.38;1035065;28;20034;-67
2024/02/19 00:50:08;;;;;;;1.58;1.17;;;;;;;5.99;100.00;97028.78;1028244;28;20380;-67
2024/02/19 00:50:39;;;;;;;1.85;1.55;;;;;;;5.97;100.00;97025.56;1031455;28;20375;-68
2024/02/19 00:51:09;;;;;;;3.42;1.63;;;;;;;5.97;100.00;97033.38;1031094;28;20494;-67
2024/02/19 00:51:40;;;;;;;1.88;1.30;;;;;;;5.97;100.00;97031.59;1027107;28;20023;-67
2024/02/19 00:52:11;;;;;;;2.95;1.23;;;;;;;5.98;100.00;97033.19;1031605;28;20081;-68
2024/02/19 00:52:42;;;;;;;2.50;1.35;;;;;;;5.95;100.00;97017.16;1036216;28;20018;-66
2024/02/19 00:53:12;;;;;;;3.33;2.05;;;;;;;5.98;100.00;97027.97;1035803;28;20022;-67
2024/02/19 00:53:43;;;;;;;1.98;1.52;;;;;;;5.98;100.00;97027.97;1038741;28;20025;-68
2024/02/19 00:54:13;;;;;;;2.53;1.40;;;;;;;5.99;100.00;97037.38;1043137;28;20025;-68
2024/02/19 00:54:44;;;;;;;1.75;1.23;;;;;;;5.99;100.00;97028.78;1039232;28;20108;-67
2024/02/19 00:55:15;;;;;;;2.65;1.70;;;;;;;5.98;100.00;97027.19;1039058;28;20030;-68
2024/02/19 00:55:45;;;;;;;1.23;1.13;;;;;;;5.93;100.00;97025.16;1039933;28;20022;-67
2024/02/19 00:56:16;;;;;;;1.23;0.95;;;;;;;6.01;100.00;97035.41;1035487;28;20044;-67
2024/02/19 00:56:46;;;;;;;0.75;0.75;;;;;;;5.91;100.00;97014.94;1035941;28;20034;-68
2024/02/19 00:57:17;;;;;;;1.63;1.25;;;;;;;5.96;100.00;97023.97;1035502;28;20033;-67
2024/02/19 00:57:47;;;;;;;1.58;1.10;;;;;;;5.94;100.00;97026.00;1031271;28;20038;-67
2024/02/19 00:58:18;;;;;;;1.38;0.85;;;;;;;5.97;100.00;97028.16;1031036;28;20037;-67
2024/02/19 00:58:48;;;;;;;1.80;1.08;;;;;;;5.96;100.00;97029.97;1034469;28;20030;-67
2024/02/19 00:59:19;;;;;;;1.27;1.00;;;;;;;5.98;100.00;97024.56;1035103;28;20794;-67
2024/02/19 00:59:49;;;;;;;3.40;1.20;;;;;;;5.99;100.00;97028.78;1038572;28;20037;-64
2024/02/19 01:00:20;;;;;;;1.50;1.20;;;;;;;5.99;100.00;97024.34;1039020;28;20055;-67
2024/02/19 01:00:51;;;;;;;2.30;1.30;;;;;;;6.00;100.00;97022.56;1034855;28;20084;-68
2024/02/19 01:01:22;;;;;;;1.60;1.23;;;;;;;6.01;100.00;97026.78;1035230;28;20026;-68
2024/02/19 01:01:52;;;;;;;2.80;1.05;;;;;;;6.02;100.00;97023.16;1035127;28;20026;-67
2024/02/19 01:02:23;;;;;;;2.50;1.25;;;;;;;6.02;100.00;97030.97;1035263;28;20030;-68
2024/02/19 01:02:53;;;;;;;1.10;0.90;;;;;;;5.99;100.00;97032.19;1039075;28;20032;-67
2024/02/19 01:03:25;;;;;;;3.15;1.70;;;;;;;5.99;100.00;97026.16;1034996;28;20045;-67
2024/02/19 01:03:56;;;;;;;1.38;1.00;;;;;;;6.00;100.00;97028.59;1030626;28;20422;-66
2024/02/19 01:04:26;;;;;;;1.95;1.00;;;;;;;6.01;100.00;97032.78;1027096;28;20062;-68
2024/02/19 01:04:58;;;;;;;2.42;1.15;;;;;;;6.03;100.00;97035.19;1026678;28;20399;-68
2024/02/19 01:05:32;;;;;;;1.55;0.90;;;;;;;6.04;100.00;97031.59;1027533;28;20030;-67
2024/02/19 01:06:02;;;;;;;2.42;1.13;;;;;;;6.05;100.00;97033.19;1035662;28;20564;-67
2024/02/19 01:06:33;;;;;;;1.00;0.90;;;;;;;6.04;100.00;97031.59;1039077;28;20129;-67
2024/02/19 01:07:03;;;;;;;3.10;0.85;;;;;;;6.00;100.00;97031.19;1038880;28;20485;-67
2024/02/19 01:07:33;;;;;;;1.70;1.08;;;;;;;6.02;100.00;97033.59;1036409;28;20653;-69
2024/02/19 01:08:04;;;;;;;1.50;1.08;;;;;;;6.01;100.00;97027.56;1038372;28;20061;-67
2024/02/19 01:08:35;;;;;;;0.80;0.80;;;;;;;6.02;100.00;97028.38;1034779;28;20120;-67
2024/02/19 01:09:07;;;;;;;0.77;0.70;;;;;;;6.03;100.00;97025.56;1037095;28;20413;-68
2024/02/19 01:09:37;;;;;;;1.25;0.95;;;;;;;6.03;100.00;97032.56;1039053;28;20037;-67
2024/02/19 01:10:09;;;;;;;1.92;1.10;;;;;;;6.03;100.00;97037.78;1042397;28;20029;-67
2024/02/19 01:10:40;;;;;;;2.47;1.20;;;;;;;6.03;100.00;97029.97;1043166;28;20512;-68
2024/02/19 01:11:10;;;;;;;1.30;0.90;;;;;;;6.02;100.00;97025.78;1043269;28;20029;-67
2024/02/19 01:11:41;;;;;;;1.83;1.23;;;;;;;6.04;100.00;97026.38;1043124;28;20464;-68
2024/02/19 01:12:11;;;;;;;1.13;0.90;;;;;;;6.02;100.00;97028.38;1039475;28;20091;-67
2024/02/19 01:12:42;;;;;;;1.77;0.85;;;;;;;6.03;100.00;97030.75;1043117;28;20167;-67
2024/02/19 01:13:12;;;;;;;2.50;0.80;;;;;;;6.02;100.00;97026.56;1043266;28;20028;-67
2024/02/19 01:13:44;;;;;;;2.47;1.10;;;;;;;6.04;100.00;97024.56;1043237;28;20103;-67
2024/02/19 01:14:14;;;;;;;4.60;1.17;;;;;;;6.03;100.00;97024.75;1043035;28;20025;-67
2024/02/19 01:14:45;;;;;;;2.13;0.90;;;;;;;6.03;100.00;97016.94;1039006;28;20021;-67
2024/02/19 01:15:16;;;;;;;1.27;1.17;;;;;;;6.03;100.00;97022.16;1039145;28;20025;-66
2024/02/19 01:15:46;;;;;;;1.35;0.90;;;;;;;6.04;100.00;97029.78;1039108;28;20285;-68
2024/02/19 01:16:16;;;;;;;2.30;1.38;;;;;;;6.04;100.00;97027.19;1043216;28;20029;-67
2024/02/19 01:16:47;;;;;;;1.13;1.02;;;;;;;6.02;100.00;97029.16;1043386;28;20024;-67
2024/02/19 01:17:18;;;;;;;1.63;1.38;;;;;;;6.03;100.00;97024.75;1042930;28;20051;-67
2024/02/19 01:17:48;;;;;;;1.05;0.70;;;;;;;6.01;100.00;97021.56;1043064;28;20021;-67
2024/02/19 01:18:19;;;;;;;1.65;1.02;;;;;;;6.00;100.00;97019.94;1042928;28;20021;-68
2024/02/19 01:18:49;;;;;;;1.58;0.90;;;;;;;5.98;100.00;97017.56;1034766;28;20580;-68
2024/02/19 01:19:20;;;;;;;1.38;0.90;;;;;;;6.01;100.00;97026.78;1036122;28;20038;-67
2024/02/19 01:19:50;;;;;;;1.30;0.63;;;;;;;6.01;100.00;97029.38;1038377;28;20025;-65
2024/02/19 01:20:21;;;;;;;2.15;1.10;;;;;;;6.01;100.00;97024.19;1035017;28;20539;-67
2024/02/19 01:20:51;;;;;;;2.30;0.73;;;;;;;6.01;100.00;97024.97;1038825;28;20080;-68
2024/02/19 01:21:22;;;;;;;1.58;0.88;;;;;;;6.01;100.00;97024.19;1038848;28;20028;-67
2024/02/19 01:21:53;;;;;;;1.15;1.05;;;;;;;6.02;100.00;97023.16;1034873;28;20033;-67
2024/02/19 01:22:24;;;;;;;0.52;0.40;;;;;;;6.02;100.00;97028.38;1038857;28;20024;-67
2024/02/19 01:22:55;;;;;;;0.38;0.38;;;;;;;6.03;100.00;97016.94;1041449;28;20030;-67
2024/02/19 01:23:25;;;;;;;1.65;0.68;;;;;;;6.01;100.00;97026.78;1039190;28;20032;-65
2024/02/19 01:23:56;;;;;;;0.68;0.52;;;;;;;6.02;100.00;97028.38;1038805;28;20043;-67
2024/02/19 01:24:26;;;;;;;1.40;0.93;;;;;;;6.03;100.00;97029.97;1034845;28;20022;-67
2024/02/19 01:24:57;;;;;;;0.40;0.40;;;;;;;6.02;100.00;97026.56;1030993;28;20029;-67
2024/02/19 01:25:27;;;;;;;1.38;0.50;;;;;;;6.01;100.00;97021.56;1034983;28;20022;-67
2024/02/19 01:25:58;;;;;;;0.70;0.68;;;;;;;6.02;100.00;97030.97;1038989;28;20033;-67
2024/02/19 01:26:30;;;;;;;0.90;0.63;;;;;;;6.03;100.00;97024.75;1042954;28;20509;-68
2024/02/19 01:27:00;;;;;;;1.25;0.68;;;;;;;6.04;100.00;97026.38;1043426;28;20477;-67
2024/02/19 01:27:30;;;;;;;0.45;0.45;;;;;;;6.03;100.00;97025.56;1043506;28;20029;-68
2024/02/19 01:28:01;;;;;;;1.33;0.90;;;;;;;6.04;100.00;97026.38;1043079;28;20550;-67
2024/02/19 01:28:32;;;;;;;1.25;0.70;;;;;;;6.02;100.00;97025.78;1043543;28;20443;-67
2024/02/19 01:29:02;;;;;;;0.70;0.47;;;;;;;6.03;100.00;97024.75;1038766;28;20501;-67
2024/02/19 01:29:34;;;;;;;0.82;0.43;;;;;;;6.03;100.00;97022.16;1038829;28;20156;-67
2024/02/19 01:30:05;;;;;;;0.75;0.70;;;;;;;6.01;100.00;97018.97;1038426;28;20092;-66
2024/02/19 01:30:35;;;;;;;1.85;0.90;;;;;;;6.02;100.00;97015.34;1035127;28;20022;-67
2024/02/19 01:31:05;;;;;;;0.63;0.52;;;;;;;6.03;100.00;97027.38;1034645;28;20022;-67
2024/02/19 01:31:36;;;;;;;0.52;0.52;;;;;;;6.04;100.00;97031.59;1031012;28;20029;-67
2024/02/19 01:32:06;;;;;;;2.15;1.00;;;;;;;6.05;100.00;97027.97;1034226;28;20025;-67
2024/02/19 01:32:37;;;;;;;1.00;0.50;;;;;;;6.04;100.00;97024.56;1034768;28;20029;-67
2024/02/19 01:33:08;;;;;;;1.27;0.85;;;;;;;6.05;100.00;97028.78;1034880;28;20515;-67
2024/02/19 01:33:38;;;;;;;0.95;0.60;;;;;;;6.04;100.00;97031.59;1039727;28;20030;-68
2024/02/19 01:34:09;;;;;;;0.95;0.70;;;;;;;6.03;100.00;97024.75;1035068;28;20018;-67
2024/02/19 01:34:40;;;;;;;0.40;0.40;;;;;;;6.03;100.00;97025.56;1036179;28;20033;-68
2024/02/19 01:35:10;;;;;;;0.88;0.60;;;;;;;6.04;100.00;97027.19;1038870;28;20397;-67
2024/02/19 01:35:41;;;;;;;0.85;0.57;;;;;;;6.03;100.00;97029.97;1035598;28;20032;-67
2024/02/19 01:36:11;;;;;;;0.50;0.50;;;;;;;6.04;100.00;97026.38;1039096;28;20053;-67
2024/02/19 01:36:41;;;;;;;0.45;0.45;;;;;;;6.03;100.00;97032.56;1031134;28;20030;-67
2024/02/19 01:37:12;;;;;;;1.35;0.70;;;;;;;6.04;100.00;97034.19;1035529;28;20029;-67
2024/02/19 01:37:42;;;;;;;0.65;0.40;;;;;;;6.04;100.00;97026.38;1040816;28;20029;-67
2024/02/19 01:38:13;;;;;;;0.90;0.45;;;;;;;6.04;100.00;97026.38;1043315;28;20440;-67
2024/02/19 01:38:43;;;;;;;1.02;0.47;;;;;;;6.04;100.00;97029.00;1039096;28;20025;-68
2024/02/19 01:39:15;;;;;;;0.22;0.22;;;;;;;6.05;100.00;97033.97;1039165;28;20029;-68
2024/02/19 01:39:47;;;;;;;1.02;0.73;;;;;;;6.05;100.00;97025.38;1035164;28;20022;-67
2024/02/19 01:40:17;;;;;;;0.85;0.55;;;;;;;6.07;100.00;97033.78;1030862;28;20434;-67
2024/02/19 01:40:48;;;;;;;0.75;0.32;;;;;;;6.07;100.00;97033.78;1035331;28;20030;-68
2024/02/19 01:41:18;;;;;;;1.35;0.93;;;;;;;6.07;100.00;97036.38;1038422;28;20026;-68
2024/02/19 01:41:49;;;;;;;1.25;0.45;;;;;;;6.06;100.00;97030.38;1043195;28;20020;-68
2024/02/19 01:42:19;;;;;;;0.47;0.47;;;;;;;6.06;100.00;97030.38;1043634;28;20024;-67
2024/02/19 01:43:02;;;;;;;0.55;0.55;;;;;;;6.05;100.00;97038.41;1043306;28;20068;-67
2024/02/19 01:43:33;;;;;;;0.52;0.52;;;;;;;6.04;100.00;97031.59;1039033;28;20017;-67
2024/02/19 01:44:04;;;;;;;1.38;0.80;;;;;;;6.03;100.00;97030.75;1034870;28;20524;-68
2024/02/19 01:44:36;;;;;;;0.63;0.47;;;;;;;6.06;100.00;97034.78;1032900;28;20082;-67
2024/02/19 01:45:24;;;;;;;0.30;0.30;;;;;;;6.06;100.00;97027.75;1034950;28;20517;-67
2024/02/19 01:45:55;;;;;;;0.80;0.70;;;;;;;6.07;100.00;97046.78;1029545;28;20100;-68
2024/02/19 01:46:27;;;;;;;0.60;0.50;;;;;;;6.03;100.00;97020.34;1029519;28;20530;-67
2024/02/19 01:46:57;;;;;;;2.30;0.57;;;;;;;6.05;100.00;97043.59;1022605;29;20832;-68
2024/02/19 01:47:28;;;;;;;5.05;1.05;;;;;;;6.05;100.00;97039.19;1024473;28;20106;-67
2024/02/19 01:47:59;;;;;;;0.65;0.60;;;;;;;6.05;100.00;97033.19;1018054;29;20099;-66
2024/02/19 01:48:30;;;;;;;0.70;0.60;;;;;;;6.03;100.00;97029.97;1020657;28;20461;-67
2024/02/19 01:49:00;;;;;;;1.17;1.08;;;;;;;6.04;100.00;97027.19;1026583;28;20081;-68
2024/02/19 01:49:31;;;;;;;0.70;0.50;;;;;;;6.04;100.00;97036.81;1026629;28;20038;-68
2024/02/19 01:50:01;;;;;;;0.50;0.50;;;;;;;6.03;100.00;97037.78;1020748;29;20483;-66
2024/02/19 01:50:32;;;;;;;0.50;0.50;;;;;;;6.05;100.00;97038.41;1018814;29;20027;-68
2024/02/19 01:51:02;;;;;;;0.73;0.55;;;;;;;5.87;100.00;97008.53;1018853;28;20027;-67
2024/02/19 01:51:33;;;;;;;1.60;1.20;;;;;;;6.02;100.00;97030.97;1026914;28;20037;-68
2024/02/19 01:52:05;;;;;;;1.35;0.50;;;;;;;6.04;100.00;97035.00;1030703;28;20015;-68
2024/02/19 01:52:35;;;;;;;0.55;0.40;;;;;;;6.04;100.00;97034.19;1031063;28;20076;-68
2024/02/19 01:53:09;;;;;;;0.68;0.45;;;;;;;6.04;100.00;97029.00;1030701;28;20095;-68
2024/02/19 01:53:41;;;;;;;0.88;0.40;;;;;;;6.04;100.00;97031.59;1027135;28;20019;-67
2024/02/19 01:54:11;;;;;;;0.40;0.30;;;;;;;6.06;100.00;97034.78;1031445;28;20038;-67
2024/02/19 01:54:42;;;;;;;0.30;0.30;;;;;;;6.05;100.00;97041.00;1030816;28;20106;-67
2024/02/19 01:55:12;;;;;;;0.52;0.40;;;;;;;6.04;100.00;97040.22;1028209;28;20023;-67
2024/02/19 01:55:43;;;;;;;3.75;0.93;;;;;;;6.02;100.00;97037.00;1026772;28;20066;-67
2024/02/19 01:56:13;;;;;;;2.65;0.77;;;;;;;6.04;100.00;97031.59;1027128;28;20121;-67
2024/02/19 01:56:43;;;;;;;0.88;0.40;;;;;;;6.03;100.00;97035.19;1030631;28;20022;-67
2024/02/19 01:57:14;;;;;;;0.32;0.32;;;;;;;6.02;100.00;97034.38;1026874;28;20061;-67
2024/02/19 01:57:45;;;;;;;0.40;0.40;;;;;;;6.03;100.00;97024.75;1030713;28;20023;-68
2024/02/19 01:58:15;;;;;;;0.57;0.55;;;;;;;6.03;100.00;97028.16;1030761;28;20015;-67
2024/02/19 01:58:46;;;;;;;0.60;0.40;;;;;;;6.01;100.00;97027.56;1030825;28;20019;-68
2024/02/19 01:59:17;;;;;;;0.40;0.40;;;;;;;5.97;100.00;97030.75;1026715;28;20041;-68
2024/02/19 01:59:47;;;;;;;4.25;0.60;;;;;;;6.01;100.00;97030.19;1030733;28;20025;-67
2024/02/19 02:00:18;;;;;;;0.30;0.30;;;;;;;6.02;100.00;97034.38;1030246;28;20025;-67
2024/02/19 02:00:48;;;;;;;0.77;0.40;;;;;;;6.02;100.00;97028.38;1026785;28;20053;-67
2024/02/19 02:01:19;;;;;;;0.70;0.50;;;;;;;6.02;100.00;97038.78;1022937;28;20527;-67
2024/02/19 02:01:50;;;;;;;2.28;0.50;;;;;;;6.02;100.00;97036.19;1019074;28;20082;-67
2024/02/19 02:02:21;;;;;;;0.63;0.40;;;;;;;6.00;100.00;97032.97;1026905;28;20090;-69
2024/02/19 02:02:52;;;;;;;1.73;0.60;;;;;;;5.97;100.00;97026.38;1026704;28;20025;-67
2024/02/19 02:03:22;;;;;;;0.90;0.80;;;;;;;6.01;100.00;97024.97;1026611;28;20025;-68
2024/02/19 02:03:53;;;;;;;0.93;0.93;;;;;;;5.99;100.00;97031.38;1026668;28;20027;-67
2024/02/19 02:04:23;;;;;;;1.92;1.48;;;;;;;6.01;100.00;97037.19;1026866;28;20027;-68
2024/02/19 02:04:54;;;;;;;1.23;1.23;;;;;;;6.02;100.00;97038.78;1026804;28;20471;-68
2024/02/19 02:05:24;;;;;;;2.50;1.35;;;;;;;6.01;100.00;97039.81;1032404;28;20371;-68
2024/02/19 02:05:54;;;;;;;1.95;1.85;;;;;;;6.01;100.00;97037.19;1034959;28;20022;-67
2024/02/19 02:06:25;;;;;;;0.52;0.50;;;;;;;5.99;100.00;97034.00;1042987;28;20025;-68
2024/02/19 02:06:56;;;;;;;0.40;0.40;;;;;;;6.00;100.00;97035.56;1042828;28;20009;-67
2024/02/19 02:07:26;;;;;;;0.30;0.30;;;;;;;6.01;100.00;97032.00;1030708;28;20018;-68
2024/02/19 02:07:57;;;;;;;4.40;0.40;;;;;;;5.99;100.00;97026.16;1030731;28;20026;-70
2024/02/19 02:08:27;;;;;;;2.60;0.45;;;;;;;5.95;100.00;97030.19;1026855;28;20549;-68
2024/02/19 02:08:58;;;;;;;0.82;0.80;;;;;;;5.98;100.00;97033.19;1029516;28;20022;-67
2024/02/19 02:09:29;;;;;;;0.55;0.40;;;;;;;5.97;100.00;97025.56;1030731;28;20117;-69
2024/02/19 02:10:02;;;;;;;0.30;0.30;;;;;;;5.99;100.00;97023.56;1026470;28;20029;-67
2024/02/19 02:10:32;;;;;;;2.28;0.30;;;;;;;5.99;100.00;97034.78;1022685;28;20557;-68
2024/02/19 02:11:03;;;;;;;0.50;0.50;;;;;;;6.01;100.00;97024.19;1023191;28;20034;-67
2024/02/19 02:11:33;;;;;;;0.40;0.40;;;;;;;5.98;100.00;97019.38;1027107;28;20506;-68
2024/02/19 02:12:04;;;;;;;0.57;0.57;;;;;;;5.96;100.00;97016.94;1019412;28;20031;-67
2024/02/19 02:12:35;;;;;;;0.45;0.30;;;;;;;5.99;100.00;97015.75;1030965;28;20548;-69
2024/02/19 02:13:05;;;;;;;0.20;0.20;;;;;;;6.01;100.00;97022.38;1022626;29;20025;-67
2024/02/19 02:13:35;;;;;;;0.40;0.40;;;;;;;5.95;100.00;97011.94;1022973;28;20027;-68
2024/02/19 02:14:06;;;;;;;0.32;0.30;;;;;;;5.98;100.00;97027.19;1026528;28;20113;-68
2024/02/19 02:14:36;;;;;;;0.43;0.38;;;;;;;5.98;100.00;97032.38;1026764;28;20503;-68
2024/02/19 02:15:07;;;;;;;3.30;0.47;;;;;;;5.97;100.00;97023.78;1035006;28;20299;-69
2024/02/19 02:15:37;;;;;;;0.10;0.10;;;;;;;5.98;100.00;97022.75;1038737;28;20116;-68
2024/02/19 02:16:08;;;;;;;2.70;0.50;;;;;;;5.97;100.00;97026.38;1038993;28;20045;-68
2024/02/19 02:16:38;;;;;;;0.20;0.20;;;;;;;5.98;100.00;97021.97;1038974;28;20041;-68
2024/02/19 02:17:09;;;;;;;0.47;0.47;;;;;;;5.97;100.00;97030.75;1038759;28;20032;-67
2024/02/19 02:17:43;;;;;;;0.47;0.40;;;;;;;5.97;100.00;97025.56;1039910;28;20064;-68
2024/02/19 02:18:15;;;;;;;0.70;0.22;;;;;;;5.96;100.00;97018.75;1039537;28;20025;-67
2024/02/19 02:18:46;;;;;;;0.35;0.32;;;;;;;5.96;100.00;97021.34;1039591;28;20030;-67
2024/02/19 02:19:16;;;;;;;0.35;0.35;;;;;;;5.98;100.00;97032.38;1039692;28;20582;-67
2024/02/19 02:19:47;;;;;;;0.73;0.45;;;;;;;5.95;100.00;97023.16;1039661;28;20032;-67
2024/02/19 02:20:17;;;;;;;1.38;0.65;;;;;;;5.95;100.00;97032.78;1039335;28;20037;-68
2024/02/19 02:20:47;;;;;;;0.38;0.35;;;;;;;5.96;100.00;97022.16;1040115;28;20026;-69
2024/02/19 02:21:18;;;;;;;2.17;0.28;;;;;;;5.95;100.00;97027.59;1040116;28;20034;-68
2024/02/19 02:21:49;;;;;;;1.30;0.32;;;;;;;5.97;100.00;97025.56;1040010;28;20435;-67
2024/02/19 02:22:19;;;;;;;0.80;0.30;;;;;;;5.95;100.00;97038.00;1039490;28;20087;-68
2024/02/19 02:22:50;;;;;;;0.38;0.20;;;;;;;5.96;100.00;97027.38;1035375;28;20359;-67
2024/02/19 02:23:20;;;;;;;0.68;0.30;;;;;;;5.96;100.00;97026.56;1035260;28;20068;-66
2024/02/19 02:23:51;;;;;;;1.42;0.40;;;;;;;5.91;100.00;97022.75;1034571;28;20057;-68
2024/02/19 02:24:21;;;;;;;1.20;0.50;;;;;;;5.96;100.00;97016.94;1031743;28;20093;-68
2024/02/19 02:24:51;;;;;;;0.40;0.30;;;;;;;5.92;100.00;97013.13;1036121;28;20030;-68
2024/02/19 02:25:22;;;;;;;0.35;0.32;;;;;;;5.97;100.00;97015.97;1027475;28;20098;-67